createdAt,value
2016-04-15T00:00:00.783Z,19.67
2016-04-15T00:01:00.785Z,19.72
2016-04-15T00:02:00.757Z,19.65
2016-04-15T00:03:00.743Z,19.75
2016-04-15T00:04:00.731Z,19.65
2016-04-15T00:05:00.702Z,19.62
2016-04-15T00:06:00.673Z,19.65
2016-04-15T00:07:00.660Z,19.71
2016-04-15T00:08:00.648Z,19.61
2016-04-15T00:09:00.634Z,19.58
2016-04-15T00:10:00.622Z,19.7
2016-04-15T00:11:00.609Z,19.65
2016-04-15T00:12:00.581Z,19.68
2016-04-15T00:13:00.568Z,19.71
2016-04-15T00:14:00.554Z,19.68
2016-04-15T00:15:00.526Z,19.65
2016-04-15T00:16:00.513Z,19.67
2016-04-15T00:17:00.484Z,19.61
2016-04-15T00:18:00.472Z,19.6
2016-04-15T00:19:00.458Z,19.67
2016-04-15T00:20:00.539Z,19.65
2016-04-15T00:21:00.416Z,19.64
2016-04-15T00:22:00.388Z,19.67
2016-04-15T00:23:00.391Z,19.65
2016-04-15T00:24:00.362Z,19.6
2016-04-15T00:25:00.349Z,19.67
2016-04-15T00:26:00.321Z,19.61
2016-04-15T00:27:00.418Z,19.67
2016-04-15T00:28:00.296Z,19.58
2016-04-15T00:29:00.282Z,19.6
2016-04-15T00:30:00.254Z,19.65
2016-04-15T00:30:59.943Z,19.58
2016-04-15T00:32:00.259Z,19.62
2016-04-15T00:33:00.200Z,19.65
2016-04-15T00:34:00.188Z,19.62
2016-04-15T00:35:00.424Z,19.62
2016-04-15T00:36:00.153Z,19.64
2016-04-15T00:36:59.968Z,19.61
2016-04-15T00:38:00.112Z,19.64
2016-04-15T00:39:00.098Z,19.61
2016-04-15T00:40:00.085Z,19.62
2016-04-15T00:41:00.057Z,19.58
2016-04-15T00:42:00.043Z,19.61
2016-04-15T00:43:00.421Z,19.58
2016-04-15T00:44:00.017Z,19.53
2016-04-15T00:44:59.911Z,19.6
2016-04-15T00:45:59.976Z,19.67
2016-04-15T00:46:59.964Z,19.6
2016-04-15T00:47:59.951Z,19.57
2016-04-15T00:48:59.923Z,19.6
2016-04-15T00:49:59.894Z,19.61
2016-04-15T00:51:00.459Z,19.6
2016-04-15T00:51:59.868Z,19.58
2016-04-15T00:52:59.855Z,19.58
2016-04-15T00:53:59.842Z,19.55
2016-04-15T00:54:59.813Z,19.55
2016-04-15T00:55:59.800Z,19.57
2016-04-15T00:56:59.787Z,19.55
2016-04-15T00:57:59.774Z,19.57
2016-04-15T00:59:00.449Z,19.55
2016-04-15T00:59:59.732Z,19.53
2016-04-15T01:00:59.719Z,19.58
2016-04-15T01:01:59.691Z,19.53
2016-04-15T01:02:59.679Z,19.52
2016-04-15T01:03:59.666Z,19.52
2016-04-15T01:04:59.637Z,19.53
2016-04-15T01:05:59.608Z,19.53
2016-04-15T01:06:59.767Z,19.6
2016-04-15T01:07:59.582Z,19.52
2016-04-15T01:08:59.570Z,19.58
2016-04-15T01:09:59.557Z,19.53
2016-04-15T01:10:59.559Z,19.58
2016-04-15T01:11:59.531Z,19.53
2016-04-15T01:12:59.517Z,19.57
2016-04-15T01:13:59.473Z,19.57
2016-04-15T01:14:59.711Z,19.55
2016-04-15T01:15:59.447Z,19.57
2016-04-15T01:16:59.435Z,19.57
2016-04-15T01:17:59.422Z,19.52
2016-04-15T01:18:59.393Z,19.53
2016-04-15T01:19:59.381Z,19.55
2016-04-15T01:20:59.195Z,19.55
2016-04-15T01:21:59.355Z,19.53
2016-04-15T01:22:59.778Z,19.57
2016-04-15T01:23:59.313Z,19.52
2016-04-15T01:24:59.284Z,19.52
2016-04-15T01:25:59.286Z,19.5
2016-04-15T01:26:59.244Z,19.52
2016-04-15T01:27:59.246Z,19.55
2016-04-15T01:28:59.217Z,19.53
2016-04-15T01:29:59.361Z,19.58
2016-04-15T01:30:59.191Z,19.5
2016-04-15T01:31:59.178Z,19.52
2016-04-15T01:32:59.149Z,19.42
2016-04-15T01:33:59.121Z,19.55
2016-04-15T01:34:59.108Z,19.5
2016-04-15T01:35:59.096Z,19.39
2016-04-15T01:36:59.082Z,19.6
2016-04-15T01:37:59.382Z,19.57
2016-04-15T01:38:59.040Z,19.5
2016-04-15T01:39:59.043Z,19.57
2016-04-15T01:40:59.015Z,19.57
2016-04-15T01:41:58.986Z,19.53
2016-04-15T01:42:58.974Z,19.57
2016-04-15T01:43:58.945Z,19.53
2016-04-15T01:44:59.042Z,19.5
2016-04-15T01:45:59.373Z,19.5
2016-04-15T01:46:58.890Z,19.57
2016-04-15T01:47:58.893Z,19.46
2016-04-15T01:48:58.864Z,19.42
2016-04-15T01:49:58.851Z,19.43
2016-04-15T01:50:58.839Z,19.46
2016-04-15T01:51:58.825Z,19.38
2016-04-15T01:52:58.781Z,19.43
2016-04-15T01:53:59.361Z,19.46
2016-04-15T01:54:58.771Z,19.47
2016-04-15T01:55:58.742Z,19.47
2016-04-15T01:56:58.713Z,19.38
2016-04-15T01:57:58.702Z,19.45
2016-04-15T01:58:58.704Z,19.38
2016-04-15T01:59:58.738Z,19.45
2016-04-15T02:00:58.647Z,19.47
2016-04-15T02:01:58.634Z,19.4
2016-04-15T02:02:58.621Z,19.38
2016-04-15T02:03:58.608Z,19.49
2016-04-15T02:04:58.595Z,19.42
2016-04-15T02:05:58.566Z,19.45
2016-04-15T02:06:58.554Z,19.49
2016-04-15T02:07:58.525Z,19.45
2016-04-15T02:08:58.497Z,19.38
2016-04-15T02:09:58.687Z,19.4
2016-04-15T02:10:58.518Z,19.43
2016-04-15T02:11:58.458Z,19.43
2016-04-15T02:12:58.429Z,19.5
2016-04-15T02:13:58.416Z,19.46
2016-04-15T02:14:58.293Z,19.42
2016-04-15T02:15:58.375Z,19.42
2016-04-15T02:16:58.362Z,19.4
2016-04-15T02:17:58.645Z,19.42
2016-04-15T02:18:58.320Z,19.4
2016-04-15T02:19:58.306Z,19.38
2016-04-15T02:20:58.294Z,19.46
2016-04-15T02:21:58.281Z,19.43
2016-04-15T02:22:58.268Z,19.43
2016-04-15T02:23:58.240Z,19.45
2016-04-15T02:24:58.274Z,19.45
2016-04-15T02:25:58.198Z,19.45
2016-04-15T02:26:58.186Z,19.47
2016-04-15T02:27:58.172Z,19.31
2016-04-15T02:28:58.144Z,19.34
2016-04-15T02:29:58.381Z,19.43
2016-04-15T02:30:58.118Z,19.35
2016-04-15T02:31:58.121Z,19.4
2016-04-15T02:32:58.280Z,19.45
2016-04-15T02:33:58.048Z,19.39
2016-04-15T02:34:58.035Z,19.43
2016-04-15T02:35:58.021Z,19.4
2016-04-15T02:36:58.024Z,19.3
2016-04-15T02:37:57.996Z,19.39
2016-04-15T02:38:57.983Z,19.31
2016-04-15T02:39:57.955Z,19.35
2016-04-15T02:40:58.301Z,19.39
2016-04-15T02:41:57.913Z,19.42
2016-04-15T02:42:57.901Z,19.3
2016-04-15T02:43:57.887Z,19.34
2016-04-15T02:44:58.249Z,19.35
2016-04-15T02:45:57.689Z,19.38
2016-04-15T02:46:57.833Z,19.28
2016-04-15T02:47:57.820Z,19.34
2016-04-15T02:48:58.307Z,19.35
2016-04-15T02:49:57.779Z,19.28
2016-04-15T02:50:57.766Z,19.34
2016-04-15T02:51:57.753Z,19.35
2016-04-15T02:52:57.725Z,19.28
2016-04-15T02:53:57.712Z,19.32
2016-04-15T02:54:57.683Z,19.34
2016-04-15T02:55:57.670Z,19.25
2016-04-15T02:56:58.297Z,19.28
2016-04-15T02:57:57.628Z,19.25
2016-04-15T02:58:57.616Z,19.28
2016-04-15T02:59:57.461Z,19.23
2016-04-15T03:00:57.589Z,19.32
2016-04-15T03:01:57.577Z,19.25
2016-04-15T03:02:57.548Z,19.25
2016-04-15T03:03:57.550Z,19.25
2016-04-15T03:04:57.616Z,19.28
2016-04-15T03:05:57.494Z,19.28
2016-04-15T03:06:57.480Z,19.28
2016-04-15T03:07:57.468Z,19.3
2016-04-15T03:08:57.439Z,19.3
2016-04-15T03:09:57.410Z,19.31
2016-04-15T03:10:57.257Z,19.27
2016-04-15T03:11:57.384Z,19.27
2016-04-15T03:12:57.574Z,19.27
2016-04-15T03:13:57.359Z,19.31
2016-04-15T03:14:57.361Z,19.28
2016-04-15T03:15:57.161Z,19.25
2016-04-15T03:16:57.304Z,19.23
2016-04-15T03:17:57.275Z,19.27
2016-04-15T03:18:57.278Z,19.24
2016-04-15T03:19:57.250Z,19.27
2016-04-15T03:20:57.628Z,19.2
2016-04-15T03:21:57.193Z,19.15
2016-04-15T03:22:57.180Z,19.17
2016-04-15T03:23:57.167Z,19.25
2016-04-15T03:24:57.154Z,19.27
2016-04-15T03:25:57.125Z,19.23
2016-04-15T03:26:57.112Z,19.17
2016-04-15T03:27:57.099Z,19.15
2016-04-15T03:28:57.086Z,19.2
2016-04-15T03:29:57.074Z,19.32
2016-04-15T03:30:57.045Z,19.21
2016-04-15T03:31:57.033Z,19.17
2016-04-15T03:32:57.019Z,19.17
2016-04-15T03:33:56.991Z,19.2
2016-04-15T03:34:56.978Z,19.27
2016-04-15T03:35:56.949Z,19.2
2016-04-15T03:36:56.936Z,19.17
2016-04-15T03:37:56.923Z,19.17
2016-04-15T03:38:56.910Z,19.21
2016-04-15T03:39:56.882Z,19.21
2016-04-15T03:40:56.854Z,19.3
2016-04-15T03:41:56.856Z,19.27
2016-04-15T03:42:56.827Z,19.15
2016-04-15T03:43:56.815Z,19.23
2016-04-15T03:44:56.801Z,19.24
2016-04-15T03:45:56.788Z,19.23
2016-04-15T03:46:56.760Z,19.27
2016-04-15T03:47:56.748Z,19.24
2016-04-15T03:48:56.718Z,19.2
2016-04-15T03:49:56.706Z,19.23
2016-04-15T03:50:56.676Z,19.17
2016-04-15T03:51:56.664Z,19.25
2016-04-15T03:52:56.651Z,19.21
2016-04-15T03:53:56.622Z,19.2
2016-04-15T03:54:56.625Z,19.17
2016-04-15T03:55:56.597Z,19.3
2016-04-15T03:56:56.583Z,19.17
2016-04-15T03:57:56.570Z,19.2
2016-04-15T03:58:56.541Z,19.25
2016-04-15T03:59:56.529Z,19.2
2016-04-15T04:00:56.500Z,19.23
2016-04-15T04:01:56.644Z,19.23
2016-04-15T04:02:56.491Z,19.17
2016-04-15T04:03:56.446Z,19.23
2016-04-15T04:04:56.449Z,19.16
2016-04-15T04:05:56.436Z,19.17
2016-04-15T04:06:56.391Z,19.12
2016-04-15T04:07:56.379Z,19.31
2016-04-15T04:08:56.366Z,19.21
2016-04-15T04:09:56.649Z,19.24
2016-04-15T04:10:56.340Z,19.24
2016-04-15T04:11:56.312Z,19.13
2016-04-15T04:12:56.299Z,19.13
2016-04-15T04:13:56.285Z,19.23
2016-04-15T04:14:56.273Z,19.17
2016-04-15T04:15:56.229Z,19.13
2016-04-15T04:16:56.215Z,19.23
2016-04-15T04:17:56.671Z,19.17
2016-04-15T04:18:56.206Z,19.21
2016-04-15T04:19:56.192Z,19.16
2016-04-15T04:20:56.164Z,19.21
2016-04-15T04:21:56.135Z,19.16
2016-04-15T04:22:56.122Z,19.17
2016-04-15T04:23:56.094Z,19.23
2016-04-15T04:24:56.096Z,19.17
2016-04-15T04:25:56.661Z,19.16
2016-04-15T04:26:56.039Z,19.1
2016-04-15T04:27:56.026Z,19.23
2016-04-15T04:28:56.014Z,19.21
2016-04-15T04:29:55.986Z,19.28
2016-04-15T04:30:55.972Z,19.16
2016-04-15T04:31:55.959Z,19.24
2016-04-15T04:32:55.931Z,19.15
2016-04-15T04:33:55.917Z,19.1
2016-04-15T04:34:55.905Z,19.17
2016-04-15T04:35:55.891Z,19.15
2016-04-15T04:36:55.847Z,19.15
2016-04-15T04:37:55.835Z,19.12
2016-04-15T04:38:55.821Z,19.15
2016-04-15T04:39:55.824Z,19.17
2016-04-15T04:40:55.779Z,19.16
2016-04-15T04:41:55.782Z,19.2
2016-04-15T04:42:55.754Z,19.16
2016-04-15T04:43:55.741Z,19.25
2016-04-15T04:44:55.713Z,19.2
2016-04-15T04:45:55.699Z,19.15
2016-04-15T04:46:55.671Z,19.28
2016-04-15T04:47:55.659Z,19.16
2016-04-15T04:48:55.707Z,19.17
2016-04-15T04:49:55.617Z,19.17
2016-04-15T04:50:55.619Z,19.07
2016-04-15T04:51:55.607Z,19.17
2016-04-15T04:52:55.588Z,19.16
2016-04-15T04:53:55.548Z,19.17
2016-04-15T04:54:55.571Z,19.16
2016-04-15T04:55:55.526Z,19.23
2016-04-15T04:56:55.717Z,19.17
2016-04-15T04:57:55.484Z,19.2
2016-04-15T04:58:55.456Z,19.25
2016-04-15T04:59:55.444Z,19.25
2016-04-15T05:00:55.462Z,19.15
2016-04-15T05:01:55.433Z,19.21
2016-04-15T05:02:55.405Z,19.17
2016-04-15T05:03:55.392Z,19.09
2016-04-15T05:04:55.707Z,19.2
2016-04-15T05:05:55.350Z,19.25
2016-04-15T05:06:55.321Z,19.15
2016-04-15T05:07:55.308Z,19.17
2016-04-15T05:08:55.280Z,19.17
2016-04-15T05:09:55.266Z,19.13
2016-04-15T05:10:55.255Z,19.17
2016-04-15T05:11:55.226Z,19.2
2016-04-15T05:12:55.775Z,19.25
2016-04-15T05:13:55.200Z,19.16
2016-04-15T05:14:55.171Z,19.1
2016-04-15T05:15:55.158Z,19.16
2016-04-15T05:16:55.146Z,19.15
2016-04-15T05:17:55.132Z,19.15
2016-04-15T05:18:55.104Z,19.17
2016-04-15T05:19:55.090Z,19.15
2016-04-15T05:20:55.734Z,19.13
2016-04-15T05:21:55.065Z,19.1
2016-04-15T05:22:55.036Z,19.12
2016-04-15T05:23:55.023Z,19.2
2016-04-15T05:24:54.995Z,19.12
2016-04-15T05:25:54.981Z,19.17
2016-04-15T05:26:54.969Z,19.15
2016-04-15T05:27:54.956Z,19.16
2016-04-15T05:28:55.037Z,19.21
2016-04-15T05:29:54.931Z,19.15
2016-04-15T05:30:54.933Z,19.16
2016-04-15T05:31:54.873Z,19.23
2016-04-15T05:32:54.844Z,19.16
2016-04-15T05:33:54.831Z,19.13
2016-04-15T05:34:54.819Z,19.16
2016-04-15T05:35:54.805Z,19.2
2016-04-15T05:36:55.028Z,19.13
2016-04-15T05:37:54.764Z,19.13
2016-04-15T05:38:54.580Z,19.17
2016-04-15T05:39:54.739Z,19.07
2016-04-15T05:40:54.710Z,19.09
2016-04-15T05:41:54.697Z,19.2
2016-04-15T05:42:54.684Z,19.13
2016-04-15T05:43:54.655Z,19.12
2016-04-15T05:44:55.049Z,19.07
2016-04-15T05:45:54.707Z,19.17
2016-04-15T05:46:54.601Z,19.17
2016-04-15T05:47:54.588Z,19.2
2016-04-15T05:48:54.559Z,19.16
2016-04-15T05:49:54.546Z,19.13
2016-04-15T05:50:54.534Z,19.17
2016-04-15T05:51:54.629Z,19.12
2016-04-15T05:52:54.508Z,19.1
2016-04-15T05:53:54.479Z,19.15
2016-04-15T05:54:54.451Z,19.12
2016-04-15T05:55:54.438Z,19.17
2016-04-15T05:56:54.425Z,19.13
2016-04-15T05:57:54.396Z,19.1
2016-04-15T05:58:54.398Z,19.17
2016-04-15T05:59:54.636Z,19.12
2016-04-15T06:00:54.545Z,19.09
2016-04-15T06:01:54.344Z,19.07
2016-04-15T06:02:54.316Z,19.13
2016-04-15T06:03:54.302Z,19.1
2016-04-15T06:04:54.289Z,19.16
2016-04-15T06:05:54.277Z,19.09
2016-04-15T06:06:54.263Z,19.12
2016-04-15T06:07:54.672Z,19.13
2016-04-15T06:08:54.222Z,19.16
2016-04-15T06:09:54.335Z,19.15
2016-04-15T06:10:54.166Z,19.1
2016-04-15T06:11:54.153Z,19.06
2016-04-15T06:12:53.999Z,19.12
2016-04-15T06:13:54.111Z,19.07
2016-04-15T06:14:54.098Z,19.15
2016-04-15T06:15:54.663Z,19.01
2016-04-15T06:16:54.057Z,19.16
2016-04-15T06:17:54.043Z,19.06
2016-04-15T06:18:54.031Z,19.13
2016-04-15T06:19:54.002Z,19.12
2016-04-15T06:20:54.053Z,19.01
2016-04-15T06:21:53.983Z,19.15
2016-04-15T06:22:53.955Z,19.05
2016-04-15T06:23:53.942Z,19.13
2016-04-15T06:24:53.929Z,19.1
2016-04-15T06:25:53.916Z,19.12
2016-04-15T06:26:53.903Z,19.12
2016-04-15T06:27:53.863Z,19.1
2016-04-15T06:28:53.850Z,19.1
2016-04-15T06:29:53.821Z,19.16
2016-04-15T06:30:53.887Z,19.09
2016-04-15T06:31:54.702Z,19.1
2016-04-15T06:32:53.783Z,19.1
2016-04-15T06:33:53.771Z,19.13
2016-04-15T06:34:53.742Z,19.12
2016-04-15T06:35:53.729Z,19.13
2016-04-15T06:36:53.701Z,19.07
2016-04-15T06:37:53.688Z,19.13
2016-04-15T06:38:53.659Z,19.13
2016-04-15T06:39:53.959Z,19.12
2016-04-15T06:40:53.632Z,19.12
2016-04-15T06:41:53.604Z,19.15
2016-04-15T06:42:53.592Z,19.02
2016-04-15T06:43:53.578Z,19.13
2016-04-15T06:44:53.565Z,19.01
2016-04-15T06:45:53.567Z,19.06
2016-04-15T06:46:53.523Z,19.02
2016-04-15T06:47:54.651Z,19.1
2016-04-15T06:48:53.497Z,19.05
2016-04-15T06:49:53.470Z,19.05
2016-04-15T06:50:53.456Z,19.1
2016-04-15T06:51:53.444Z,19.05
2016-04-15T06:52:53.431Z,19.07
2016-04-15T06:53:53.386Z,19.1
2016-04-15T06:54:53.577Z,19.05
2016-04-15T06:55:53.360Z,19.09
2016-04-15T06:56:53.347Z,19.05
2016-04-15T06:57:53.335Z,19.05
2016-04-15T06:58:53.306Z,19.12
2016-04-15T06:59:53.294Z,19.02
2016-04-15T07:00:53.406Z,19.13
2016-04-15T07:01:53.268Z,19.01
2016-04-15T07:02:53.599Z,19.01
2016-04-15T07:03:53.226Z,19.1
2016-04-15T07:04:53.197Z,19.13
2016-04-15T07:05:53.185Z,19.1
2016-04-15T07:06:53.171Z,19.09
2016-04-15T07:07:53.159Z,19.06
2016-04-15T07:08:53.130Z,19.12
2016-04-15T07:09:53.117Z,19.12
2016-04-15T07:10:53.588Z,19.12
2016-04-15T07:11:53.075Z,19.09
2016-04-15T07:12:53.062Z,19.1
2016-04-15T07:13:53.050Z,19.12
2016-04-15T07:14:53.021Z,19.07
2016-04-15T07:15:53.040Z,19.07
2016-04-15T07:16:52.979Z,19.05
2016-04-15T07:17:52.982Z,19.09
2016-04-15T07:18:53.595Z,19.02
2016-04-15T07:19:52.942Z,18.94
2016-04-15T07:20:52.912Z,19.07
2016-04-15T07:21:52.888Z,19.07
2016-04-15T07:22:52.875Z,19.06
2016-04-15T07:23:52.863Z,19.1
2016-04-15T07:24:52.834Z,19.07
2016-04-15T07:25:52.821Z,19.02
2016-04-15T07:26:53.604Z,19.01
2016-04-15T07:27:52.800Z,19.09
2016-04-15T07:28:52.772Z,19.12
2016-04-15T07:29:52.759Z,19.07
2016-04-15T07:30:52.762Z,19.01
2016-04-15T07:31:52.702Z,19.07
2016-04-15T07:32:52.689Z,19.06
2016-04-15T07:33:52.676Z,19.1
2016-04-15T07:34:53.662Z,19.01
2016-04-15T07:35:52.665Z,18.97
2016-04-15T07:36:52.637Z,19.06
2016-04-15T07:37:52.623Z,18.94
2016-04-15T07:38:52.595Z,18.97
2016-04-15T07:39:52.583Z,19.02
2016-04-15T07:40:52.553Z,19.07
2016-04-15T07:41:52.542Z,18.94
2016-04-15T07:42:52.872Z,19.07
2016-04-15T07:43:52.500Z,19.02
2016-04-15T07:44:52.487Z,19.13
2016-04-15T07:45:52.474Z,19.06
2016-04-15T07:46:52.445Z,19.06
2016-04-15T07:47:52.432Z,19.06
2016-04-15T07:48:52.419Z,19.1
2016-04-15T07:49:52.406Z,19.06
2016-04-15T07:50:52.377Z,19.16
2016-04-15T07:51:52.365Z,19.09
2016-04-15T07:52:52.351Z,19.09
2016-04-15T07:53:52.323Z,19.1
2016-04-15T07:54:52.294Z,19.07
2016-04-15T07:55:52.296Z,19.05
2016-04-15T07:56:52.269Z,19.2
2016-04-15T07:57:52.256Z,19.21
2016-04-15T07:58:52.243Z,19.27
2016-04-15T07:59:52.214Z,19.27
2016-04-15T08:00:52.217Z,19.38
2016-04-15T08:01:52.173Z,19.34
2016-04-15T08:02:52.175Z,19.47
2016-04-15T08:03:52.147Z,19.47
2016-04-15T08:04:52.134Z,19.4
2016-04-15T08:05:52.106Z,19.58
2016-04-15T08:06:52.109Z,19.57
2016-04-15T08:07:52.080Z,19.57
2016-04-15T08:08:52.067Z,19.57
2016-04-15T08:09:52.054Z,19.49
2016-04-15T08:10:52.025Z,19.49
2016-04-15T08:11:52.012Z,19.46
2016-04-15T08:12:52.000Z,19.43
2016-04-15T08:13:51.955Z,19.52
2016-04-15T08:14:51.958Z,19.38
2016-04-15T08:15:51.944Z,19.42
2016-04-15T08:16:51.933Z,19.45
2016-04-15T08:17:51.903Z,19.57
2016-04-15T08:18:51.875Z,19.6
2016-04-15T08:19:51.862Z,19.53
2016-04-15T08:20:51.849Z,19.65
2016-04-15T08:21:51.826Z,19.67
2016-04-15T08:22:51.798Z,19.72
2016-04-15T08:23:51.941Z,19.64
2016-04-15T08:24:51.772Z,19.75
2016-04-15T08:25:51.758Z,19.79
2016-04-15T08:26:51.746Z,19.7
2016-04-15T08:27:51.717Z,19.71
2016-04-15T08:28:51.704Z,19.76
2016-04-15T08:29:51.692Z,19.79
2016-04-15T08:30:51.663Z,19.72
2016-04-15T08:31:51.905Z,19.82
2016-04-15T08:32:51.669Z,19.82
2016-04-15T08:33:51.714Z,19.85
2016-04-15T08:34:51.728Z,19.8
2016-04-15T08:35:51.742Z,19.82
2016-04-15T08:36:51.800Z,19.79
2016-04-15T08:37:51.787Z,19.75
2016-04-15T08:38:51.774Z,19.68
2016-04-15T08:39:52.213Z,19.67
2016-04-15T08:40:51.763Z,19.67
2016-04-15T08:41:51.764Z,19.62
2016-04-15T08:42:51.756Z,19.71
2016-04-15T08:43:51.749Z,19.68
2016-04-15T08:44:51.711Z,19.62
2016-04-15T08:45:51.719Z,19.67
2016-04-15T08:46:51.710Z,19.78
2016-04-15T08:47:52.309Z,19.64
2016-04-15T08:48:51.704Z,19.65
2016-04-15T08:49:51.646Z,19.7
2016-04-15T08:50:51.635Z,19.64
2016-04-15T08:51:51.624Z,19.68
2016-04-15T08:52:51.612Z,19.65
2016-04-15T08:53:51.584Z,19.71
2016-04-15T08:54:51.572Z,19.72
2016-04-15T08:55:51.560Z,19.62
2016-04-15T08:56:51.532Z,19.71
2016-04-15T08:57:51.519Z,19.75
2016-04-15T08:58:51.491Z,19.71
2016-04-15T08:59:51.479Z,19.72
2016-04-15T09:00:51.481Z,19.75
2016-04-15T09:01:51.453Z,19.78
2016-04-15T09:02:51.425Z,19.75
2016-04-15T09:03:51.599Z,19.8
2016-04-15T09:04:51.399Z,19.76
2016-04-15T09:05:51.387Z,19.72
2016-04-15T09:06:51.342Z,19.68
2016-04-15T09:07:51.345Z,19.71
2016-04-15T09:08:51.331Z,19.75
2016-04-15T09:09:51.303Z,19.82
2016-04-15T09:10:51.290Z,19.82
2016-04-15T09:11:51.574Z,19.86
2016-04-15T09:12:51.280Z,19.94
2016-04-15T09:13:51.235Z,19.97
2016-04-15T09:14:51.222Z,19.92
2016-04-15T09:15:51.210Z,19.98
2016-04-15T09:16:51.181Z,20.01
2016-04-15T09:17:51.169Z,20.02
2016-04-15T09:18:50.421Z,20.13
2016-04-15T09:19:51.596Z,20.12
2016-04-15T09:20:51.113Z,20.2
2016-04-15T09:21:51.101Z,20.19
2016-04-15T09:22:51.072Z,20.31
2016-04-15T09:23:51.060Z,20.16
2016-04-15T09:24:51.046Z,20.16
2016-04-15T09:25:51.050Z,20.07
2016-04-15T09:26:51.177Z,20.12
2016-04-15T09:27:50.993Z,19.95
2016-04-15T09:28:50.979Z,19.95
2016-04-15T09:29:50.951Z,19.98
2016-04-15T09:30:50.954Z,19.92
2016-04-15T09:31:50.924Z,19.97
2016-04-15T09:32:50.912Z,19.95
2016-04-15T09:33:50.898Z,20.01
2016-04-15T09:34:51.214Z,19.97
2016-04-15T09:35:50.857Z,20.01
2016-04-15T09:36:50.829Z,19.89
2016-04-15T09:37:50.816Z,19.95
2016-04-15T09:38:50.787Z,19.97
2016-04-15T09:39:50.775Z,19.97
2016-04-15T09:40:50.777Z,20.01
2016-04-15T09:41:50.764Z,19.97
2016-04-15T09:42:51.189Z,19.9
2016-04-15T09:43:50.706Z,20
2016-04-15T09:44:50.725Z,19.89
2016-04-15T09:45:50.680Z,19.85
2016-04-15T09:46:50.668Z,19.82
2016-04-15T09:47:50.639Z,19.9
2016-04-15T09:48:50.642Z,19.86
2016-04-15T09:49:50.614Z,19.85
2016-04-15T09:50:51.179Z,19.89
2016-04-15T09:51:50.572Z,19.87
2016-04-15T09:52:50.543Z,19.97
2016-04-15T09:53:50.530Z,19.98
2016-04-15T09:54:50.518Z,20
2016-04-15T09:55:50.505Z,20.23
2016-04-15T09:56:50.492Z,20.13
2016-04-15T09:57:50.464Z,20.23
2016-04-15T09:58:50.482Z,20.27
2016-04-15T09:59:50.422Z,20.41
2016-04-15T10:00:50.440Z,20.31
2016-04-15T10:01:50.427Z,20.3
2016-04-15T10:02:50.382Z,20.26
2016-04-15T10:03:50.354Z,20.31
2016-04-15T10:04:50.342Z,20.31
2016-04-15T10:05:50.312Z,20.27
2016-04-15T10:06:50.347Z,20.3
2016-04-15T10:07:50.287Z,20.3
2016-04-15T10:08:50.274Z,20.33
2016-04-15T10:09:50.262Z,20.38
2016-04-15T10:10:50.233Z,20.3
2016-04-15T10:11:50.220Z,20.33
2016-04-15T10:12:50.191Z,20.34
2016-04-15T10:13:50.178Z,20.3
2016-04-15T10:14:50.525Z,20.26
2016-04-15T10:15:50.136Z,20.3
2016-04-15T10:16:50.186Z,20.33
2016-04-15T10:17:50.141Z,20.31
2016-04-15T10:18:50.082Z,20.27
2016-04-15T10:19:50.085Z,20.3
2016-04-15T10:20:50.072Z,20.26
2016-04-15T10:21:50.091Z,20.31
2016-04-15T10:22:50.015Z,20.37
2016-04-15T10:23:50.002Z,20.31
2016-04-15T10:24:50.004Z,20.38
2016-04-15T10:25:49.976Z,20.4
2016-04-15T10:26:49.963Z,20.41
2016-04-15T10:27:49.950Z,20.48
2016-04-15T10:28:49.922Z,20.44
2016-04-15T10:29:50.144Z,20.48
2016-04-15T10:30:49.880Z,20.48
2016-04-15T10:31:52.430Z,20.5
2016-04-15T10:32:49.838Z,20.51
2016-04-15T10:33:49.841Z,20.56
2016-04-15T10:34:49.812Z,20.44
2016-04-15T10:35:49.800Z,20.57
2016-04-15T10:36:49.787Z,20.58
2016-04-15T10:37:50.164Z,20.56
2016-04-15T10:38:49.730Z,20.54
2016-04-15T10:39:49.717Z,20.53
2016-04-15T10:40:49.704Z,20.56
2016-04-15T10:41:49.691Z,20.44
2016-04-15T10:42:49.678Z,20.48
2016-04-15T10:43:49.509Z,20.31
2016-04-15T10:44:49.636Z,20.37
2016-04-15T10:45:50.170Z,20.34
2016-04-15T10:46:49.469Z,20.33
2016-04-15T10:47:49.582Z,20.3
2016-04-15T10:48:49.569Z,20.23
2016-04-15T10:49:49.555Z,20.16
2016-04-15T10:50:49.528Z,20.19
2016-04-15T10:51:49.514Z,20.2
2016-04-15T10:52:49.502Z,20.13
2016-04-15T10:53:50.129Z,20.07
2016-04-15T10:54:49.460Z,20.1
2016-04-15T10:55:49.447Z,20.16
2016-04-15T10:56:49.419Z,20.08
2016-04-15T10:57:49.406Z,19.95
2016-04-15T10:58:49.394Z,19.94
2016-04-15T10:59:49.365Z,19.94
2016-04-15T11:00:49.352Z,20
2016-04-15T11:01:49.464Z,19.98
2016-04-15T11:02:49.310Z,19.92
2016-04-15T11:03:49.297Z,20.1
2016-04-15T11:04:49.284Z,20.13
2016-04-15T11:05:49.271Z,20.04
2016-04-15T11:06:49.258Z,20.12
2016-04-15T11:07:49.245Z,20.17
2016-04-15T11:08:49.217Z,20.12
2016-04-15T11:09:50.360Z,20.16
2016-04-15T11:10:49.207Z,20.1
2016-04-15T11:11:49.162Z,20.07
2016-04-15T11:12:49.150Z,20.08
2016-04-15T11:13:49.137Z,20.15
2016-04-15T11:14:49.108Z,20.04
2016-04-15T11:15:49.111Z,20.22
2016-04-15T11:16:49.128Z,20.22
2016-04-15T11:17:49.459Z,20.19
2016-04-15T11:18:49.040Z,20.33
2016-04-15T11:19:49.027Z,20.27
2016-04-15T11:20:49.014Z,20.35
2016-04-15T11:21:49.002Z,20.4
2016-04-15T11:22:48.973Z,20.41
2016-04-15T11:23:48.960Z,20.5
2016-04-15T11:24:48.932Z,20.6
2016-04-15T11:25:48.934Z,20.63
2016-04-15T11:26:48.890Z,20.78
2016-04-15T11:27:48.877Z,20.78
2016-04-15T11:28:48.864Z,20.83
2016-04-15T11:29:48.852Z,20.9
2016-04-15T11:30:48.824Z,20.93
2016-04-15T11:31:48.794Z,20.87
2016-04-15T11:32:48.797Z,20.82
2016-04-15T11:33:48.784Z,20.85
2016-04-15T11:34:48.771Z,20.91
2016-04-15T11:35:48.727Z,20.94
2016-04-15T11:36:51.323Z,20.96
2016-04-15T11:37:48.701Z,21
2016-04-15T11:38:48.687Z,21.11
2016-04-15T11:39:48.676Z,21.05
2016-04-15T11:40:48.646Z,21.13
2016-04-15T11:41:51.321Z,21.15
2016-04-15T11:42:48.620Z,21.11
2016-04-15T11:43:48.623Z,21.11
2016-04-15T11:44:48.595Z,21.16
2016-04-15T11:45:48.566Z,21.19
2016-04-15T11:46:48.553Z,21.28
2016-04-15T11:47:48.540Z,21.28
2016-04-15T11:48:48.511Z,21.27
2016-04-15T11:49:48.499Z,21.21
2016-04-15T11:50:48.486Z,21.26
2016-04-15T11:51:48.472Z,21.11
2016-04-15T11:52:48.475Z,21.15
2016-04-15T11:53:48.431Z,21.13
2016-04-15T11:54:48.418Z,21.01
2016-04-15T11:55:48.405Z,20.9
2016-04-15T11:56:48.393Z,20.93
2016-04-15T11:57:48.364Z,20.83
2016-04-15T11:58:48.461Z,20.76
2016-04-15T11:59:48.338Z,20.73
2016-04-15T12:00:48.325Z,20.6
2016-04-15T12:01:48.327Z,20.64
2016-04-15T12:02:48.284Z,20.5
2016-04-15T12:03:48.254Z,20.51
2016-04-15T12:04:48.242Z,20.53
2016-04-15T12:05:48.229Z,20.58
2016-04-15T12:06:48.482Z,20.57
2016-04-15T12:07:48.187Z,20.63
2016-04-15T12:08:48.347Z,20.73
2016-04-15T12:09:48.148Z,20.72
2016-04-15T12:10:48.136Z,20.78
2016-04-15T12:11:48.107Z,20.78
2016-04-15T12:12:48.031Z,20.83
2016-04-15T12:13:47.972Z,20.87
2016-04-15T12:14:48.521Z,20.87
2016-04-15T12:15:48.055Z,20.9
2016-04-15T12:16:47.916Z,20.85
2016-04-15T12:17:48.014Z,20.88
2016-04-15T12:18:48.000Z,20.83
2016-04-15T12:19:48.003Z,20.76
2016-04-15T12:20:47.960Z,20.76
2016-04-15T12:21:48.274Z,20.75
2016-04-15T12:22:48.527Z,20.72
2016-04-15T12:23:47.920Z,20.72
2016-04-15T12:24:47.891Z,20.72
2016-04-15T12:25:48.170Z,20.66
2016-04-15T12:26:47.875Z,20.66
2016-04-15T12:27:47.847Z,20.71
2016-04-15T12:28:47.834Z,20.71
2016-04-15T12:29:47.806Z,20.76
2016-04-15T12:30:48.496Z,20.78
2016-04-15T12:31:47.811Z,20.81
2016-04-15T12:32:47.751Z,20.76
2016-04-15T12:33:47.581Z,20.79
2016-04-15T12:34:47.725Z,20.76
2016-04-15T12:35:47.712Z,20.72
2016-04-15T12:36:47.715Z,20.61
2016-04-15T12:37:47.672Z,20.61
2016-04-15T12:38:47.814Z,20.48
2016-04-15T12:39:47.630Z,20.5
2016-04-15T12:40:47.632Z,20.53
2016-04-15T12:41:47.635Z,20.42
2016-04-15T12:42:47.591Z,20.51
2016-04-15T12:43:47.562Z,20.54
2016-04-15T12:44:47.549Z,20.71
2016-04-15T12:45:47.520Z,20.73
2016-04-15T12:46:47.821Z,20.81
2016-04-15T12:47:47.494Z,20.87
2016-04-15T12:48:47.482Z,20.83
2016-04-15T12:49:47.469Z,21
2016-04-15T12:50:47.471Z,21.06
2016-04-15T12:51:47.427Z,21.11
2016-04-15T12:52:47.398Z,21.22
2016-04-15T12:53:47.417Z,21.37
2016-04-15T12:54:47.778Z,21.46
2016-04-15T12:55:47.375Z,21.51